Terminal Aerodrome Forecast
Issued by NWS

Home | Current Version | Previous Version | Text Only | Print | Product List | Glossary On
Versions: 1 2 3 4 5 6 7 8 9 10 11 12 13 14 15 16 17
814
FTUS41 KCAR 010521
TAFBHB
TAF
KBHB 010521Z 0106/0206 36004KT P6SM SCT120 BKN200
     FM011300 VRB03KT P6SM SCT100 OVC180
     FM011700 VRB03KT P6SM OVC100
     FM012100 VRB03KT P6SM VCSH OVC060
     FM020100 07005KT 6SM -RA OVC030
     FM020400 06005KT 3SM -RA BR OVC018=

USA.gov is the U.S. government's official web portal to all federal, state and local government web resources and services.